Grand Haven, Michigan
Current Conditions -  °F | °C
As of 9:55 AM on Sunday 23 Nov 2014 (Local Time) from KMKG Reporting Station
Overcast Overcast  
Wind Chill: 53°   Ceiling: 2900
Heat Index: 53°   Visibility: 10mi
Dew Point: 42°   Wind: 18mph
Humidity: 66%   Direction: 170°S
Pressure: 29.77"   Gusts: 29mph
Location:  43.06°N, 86.22°W
Report Text: KMKG 231455Z 17016G25KT 10SM OVC029 12/06 A2977 RMK AO2 PRESFR SLP082 T01170056 57006
Loading
Personal Weather Stations






























Interactive Weather Map New forecast layout! Learn more

10-Day Weather Forecast

Advertisements
Track Severe Weather on mobile